sensor_id;sensor_type;location;lat;lon;timestamp;temperature;humidity
4175;DHT22;2101;48.290;14.382;2024-01-10T00:01:56;-4.20;99.90
4175;DHT22;2101;48.290;14.382;2024-01-10T00:04:21;-4.20;99.90
4175;DHT22;2101;48.290;14.382;2024-01-10T00:06:47;-4.20;99.90
4175;DHT22;2101;48.290;14.382;2024-01-10T00:09:13;-4.20;99.90
4175;DHT22;2101;48.290;14.382;2024-01-10T00:11:39;-4.20;99.90
4175;DHT22;2101;48.290;14.382;2024-01-10T00:14:04;-4.30;99.90
4175;DHT22;2101;48.290;14.382;2024-01-10T00:16:30;-4.30;99.90
4175;DHT22;2101;48.290;14.382;2024-01-10T00:18:56;-4.40;99.90
4175;DHT22;2101;48.290;14.382;2024-01-10T00:21:22;-4.40;99.90
4175;DHT22;2101;48.290;14.382;2024-01-10T00:23:48;-4.30;99.90
4175;DHT22;2101;48.290;14.382;2024-01-10T00:26:14;-4.30;99.90
4175;DHT22;2101;48.290;14.382;2024-01-10T00:28:39;-4.30;99.90
4175;DHT22;2101;48.290;14.382;2024-01-10T00:31:05;-4.30;99.90
4175;DHT22;2101;48.290;14.382;2024-01-10T00:33:31;-4.40;99.90
4175;DHT22;2101;48.290;14.382;2024-01-10T00:35:56;-4.30;99.90
4175;DHT22;2101;48.290;14.382;2024-01-10T00:38:22;-4.40;99.90
4175;DHT22;2101;48.290;14.382;2024-01-10T00:40:47;-4.40;99.90
4175;DHT22;2101;48.290;14.382;2024-01-10T00:43:13;-4.40;99.90
4175;DHT22;2101;48.290;14.382;2024-01-10T00:45:39;-4.50;99.90
4175;DHT22;2101;48.290;14.382;2024-01-10T00:48:05;-4.50;99.90
4175;DHT22;2101;48.290;14.382;2024-01-10T00:50:30;-4.50;99.90
4175;DHT22;2101;48.290;14.382;2024-01-10T00:52:56;-4.50;99.90
4175;DHT22;2101;48.290;14.382;2024-01-10T00:55:22;-4.50;99.90
4175;DHT22;2101;48.290;14.382;2024-01-10T00:57:47;-4.60;99.90
4175;DHT22;2101;48.290;14.382;2024-01-10T01:00:14;-4.60;99.90
4175;DHT22;2101;48.290;14.382;2024-01-10T01:02:39;-4.70;99.90
4175;DHT22;2101;48.290;14.382;2024-01-10T01:05:06;-4.70;99.90
4175;DHT22;2101;48.290;14.382;2024-01-10T01:07:36;-4.70;99.90
4175;DHT22;2101;48.290;14.382;2024-01-10T01:10:02;-4.80;99.90
4175;DHT22;2101;48.290;14.382;2024-01-10T01:12:28;-4.90;99.90
4175;DHT22;2101;48.290;14.382;2024-01-10T01:14:54;-4.90;99.90
4175;DHT22;2101;48.290;14.382;2024-01-10T01:17:20;-4.80;99.90
4175;DHT22;2101;48.290;14.382;2024-01-10T01:19:45;-4.70;99.90
4175;DHT22;2101;48.290;14.382;2024-01-10T01:22:11;-4.80;99.90
4175;DHT22;2101;48.290;14.382;2024-01-10T01:24:37;-4.80;99.90
4175;DHT22;2101;48.290;14.382;2024-01-10T01:27:03;-4.70;99.90
4175;DHT22;2101;48.290;14.382;2024-01-10T01:29:29;-4.60;99.90
4175;DHT22;2101;48.290;14.382;2024-01-10T01:31:55;-4.60;99.90
4175;DHT22;2101;48.290;14.382;2024-01-10T01:34:20;-4.60;99.90
4175;DHT22;2101;48.290;14.382;2024-01-10T01:36:47;-4.70;99.90
4175;DHT22;2101;48.290;14.382;2024-01-10T01:39:13;-4.60;99.90
4175;DHT22;2101;48.290;14.382;2024-01-10T01:41:39;-4.70;99.90
4175;DHT22;2101;48.290;14.382;2024-01-10T01:44:05;-4.70;99.90
4175;DHT22;2101;48.290;14.382;2024-01-10T01:46:32;-4.70;99.90
4175;DHT22;2101;48.290;14.382;2024-01-10T01:48:58;-4.60;99.90
4175;DHT22;2101;48.290;14.382;2024-01-10T01:51:26;-4.70;99.90
4175;DHT22;2101;48.290;14.382;2024-01-10T01:53:52;-4.70;99.90
4175;DHT22;2101;48.290;14.382;2024-01-10T01:56:20;-4.70;99.90
4175;DHT22;2101;48.290;14.382;2024-01-10T01:58:46;-4.70;99.90
4175;DHT22;2101;48.290;14.382;2024-01-10T02:01:13;-4.70;99.90
4175;DHT22;2101;48.290;14.382;2024-01-10T02:03:40;-4.70;99.90
4175;DHT22;2101;48.290;14.382;2024-01-10T02:06:06;-4.60;99.90
4175;DHT22;2101;48.290;14.382;2024-01-10T02:08:33;-4.60;99.90
4175;DHT22;2101;48.290;14.382;2024-01-10T02:11:00;-4.60;99.90
4175;DHT22;2101;48.290;14.382;2024-01-10T02:13:28;-4.70;99.90
4175;DHT22;2101;48.290;14.382;2024-01-10T02:15:54;-4.70;99.90
4175;DHT22;2101;48.290;14.382;2024-01-10T02:18:20;-4.70;99.90
4175;DHT22;2101;48.290;14.382;2024-01-10T02:20:46;-4.70;99.90
4175;DHT22;2101;48.290;14.382;2024-01-10T02:23:12;-4.70;99.90
4175;DHT22;2101;48.290;14.382;2024-01-10T02:25:39;-4.70;99.90
4175;DHT22;2101;48.290;14.382;2024-01-10T02:28:06;-4.80;99.90
4175;DHT22;2101;48.290;14.382;2024-01-10T02:30:32;-4.70;99.90
4175;DHT22;2101;48.290;14.382;2024-01-10T02:32:58;-4.80;99.90
4175;DHT22;2101;48.290;14.382;2024-01-10T02:35:24;-4.80;99.90
4175;DHT22;2101;48.290;14.382;2024-01-10T02:37:49;-4.80;99.90
4175;DHT22;2101;48.290;14.382;2024-01-10T02:40:17;-4.80;99.90
4175;DHT22;2101;48.290;14.382;2024-01-10T02:42:43;-4.80;99.90
4175;DHT22;2101;48.290;14.382;2024-01-10T02:45:09;-4.80;99.90
4175;DHT22;2101;48.290;14.382;2024-01-10T02:47:35;-4.70;99.90
4175;DHT22;2101;48.290;14.382;2024-01-10T02:50:03;-4.70;99.90
4175;DHT22;2101;48.290;14.382;2024-01-10T02:52:28;-4.70;99.90
4175;DHT22;2101;48.290;14.382;2024-01-10T02:54:54;-4.70;99.90
4175;DHT22;2101;48.290;14.382;2024-01-10T02:57:20;-4.70;99.90
4175;DHT22;2101;48.290;14.382;2024-01-10T02:59:45;-4.80;99.90
4175;DHT22;2101;48.290;14.382;2024-01-10T03:02:11;-4.80;99.90
4175;DHT22;2101;48.290;14.382;2024-01-10T03:04:37;-4.90;99.90
4175;DHT22;2101;48.290;14.382;2024-01-10T03:07:03;-4.80;99.90
4175;DHT22;2101;48.290;14.382;2024-01-10T03:09:29;-4.80;99.90
4175;DHT22;2101;48.290;14.382;2024-01-10T03:11:54;-4.80;99.90
4175;DHT22;2101;48.290;14.382;2024-01-10T03:14:20;-4.80;99.90
4175;DHT22;2101;48.290;14.382;2024-01-10T03:16:47;-4.80;99.90
4175;DHT22;2101;48.290;14.382;2024-01-10T03:19:13;-4.70;99.90
4175;DHT22;2101;48.290;14.382;2024-01-10T03:21:39;-4.80;99.90
4175;DHT22;2101;48.290;14.382;2024-01-10T03:24:05;-4.90;99.90
4175;DHT22;2101;48.290;14.382;2024-01-10T03:26:31;-4.90;99.90
4175;DHT22;2101;48.290;14.382;2024-01-10T03:28:57;-4.90;99.90
4175;DHT22;2101;48.290;14.382;2024-01-10T03:31:23;-5.00;99.90
4175;DHT22;2101;48.290;14.382;2024-01-10T03:33:49;-5.00;99.90
4175;DHT22;2101;48.290;14.382;2024-01-10T03:36:17;-5.10;99.90
4175;DHT22;2101;48.290;14.382;2024-01-10T03:38:43;-5.10;99.90
4175;DHT22;2101;48.290;14.382;2024-01-10T03:41:16;-5.10;99.90
4175;DHT22;2101;48.290;14.382;2024-01-10T03:43:43;-5.20;99.90
4175;DHT22;2101;48.290;14.382;2024-01-10T03:46:10;-5.20;99.90
4175;DHT22;2101;48.290;14.382;2024-01-10T03:48:36;-5.20;99.90
4175;DHT22;2101;48.290;14.382;2024-01-10T03:51:02;-5.20;99.90
4175;DHT22;2101;48.290;14.382;2024-01-10T03:53:28;-5.20;99.90
4175;DHT22;2101;48.290;14.382;2024-01-10T03:55:55;-5.30;99.90
4175;DHT22;2101;48.290;14.382;2024-01-10T03:58:21;-5.30;99.90
4175;DHT22;2101;48.290;14.382;2024-01-10T04:00:46;-5.30;99.90
4175;DHT22;2101;48.290;14.382;2024-01-10T04:03:12;-5.40;99.90
4175;DHT22;2101;48.290;14.382;2024-01-10T04:05:38;-5.50;99.90
4175;DHT22;2101;48.290;14.382;2024-01-10T04:08:04;-5.50;99.90
4175;DHT22;2101;48.290;14.382;2024-01-10T04:10:29;-5.50;99.90
4175;DHT22;2101;48.290;14.382;2024-01-10T04:12:55;-5.60;99.90
4175;DHT22;2101;48.290;14.382;2024-01-10T04:15:21;-5.60;99.90
4175;DHT22;2101;48.290;14.382;2024-01-10T04:17:47;-5.60;99.90
4175;DHT22;2101;48.290;14.382;2024-01-10T04:20:13;-5.60;99.90
4175;DHT22;2101;48.290;14.382;2024-01-10T04:22:38;-5.70;99.90
4175;DHT22;2101;48.290;14.382;2024-01-10T04:25:06;-5.70;99.90
4175;DHT22;2101;48.290;14.382;2024-01-10T04:27:32;-5.70;99.90
4175;DHT22;2101;48.290;14.382;2024-01-10T04:29:58;-5.80;99.90
4175;DHT22;2101;48.290;14.382;2024-01-10T04:32:23;-5.80;99.90
4175;DHT22;2101;48.290;14.382;2024-01-10T04:34:49;-5.80;99.90
4175;DHT22;2101;48.290;14.382;2024-01-10T04:37:15;-5.80;99.90
4175;DHT22;2101;48.290;14.382;2024-01-10T04:39:41;-5.80;99.90
4175;DHT22;2101;48.290;14.382;2024-01-10T04:42:08;-5.80;99.90
4175;DHT22;2101;48.290;14.382;2024-01-10T04:44:36;-5.80;99.90
4175;DHT22;2101;48.290;14.382;2024-01-10T04:47:02;-5.90;99.90
4175;DHT22;2101;48.290;14.382;2024-01-10T04:49:27;-5.90;99.90
4175;DHT22;2101;48.290;14.382;2024-01-10T04:51:53;-5.90;99.90
4175;DHT22;2101;48.290;14.382;2024-01-10T04:54:19;-5.90;99.90
4175;DHT22;2101;48.290;14.382;2024-01-10T04:56:46;-5.90;99.90
4175;DHT22;2101;48.290;14.382;2024-01-10T04:59:11;-5.90;99.90
4175;DHT22;2101;48.290;14.382;2024-01-10T05:01:37;-5.90;99.90
4175;DHT22;2101;48.290;14.382;2024-01-10T05:04:03;-5.90;99.90
4175;DHT22;2101;48.290;14.382;2024-01-10T05:06:29;-5.90;99.90
4175;DHT22;2101;48.290;14.382;2024-01-10T05:08:55;-5.90;99.90
4175;DHT22;2101;48.290;14.382;2024-01-10T05:11:24;-5.90;99.90
4175;DHT22;2101;48.290;14.382;2024-01-10T05:13:50;-5.90;99.90
4175;DHT22;2101;48.290;14.382;2024-01-10T05:16:16;-5.90;99.90
4175;DHT22;2101;48.290;14.382;2024-01-10T05:18:43;-6.00;99.90
4175;DHT22;2101;48.290;14.382;2024-01-10T05:21:08;-6.00;99.90
4175;DHT22;2101;48.290;14.382;2024-01-10T05:23:34;-6.10;99.90
4175;DHT22;2101;48.290;14.382;2024-01-10T05:26:00;-6.10;99.90
4175;DHT22;2101;48.290;14.382;2024-01-10T05:28:26;-6.10;99.90
4175;DHT22;2101;48.290;14.382;2024-01-10T05:30:52;-6.00;99.90
4175;DHT22;2101;48.290;14.382;2024-01-10T05:33:19;-6.20;99.90
4175;DHT22;2101;48.290;14.382;2024-01-10T05:35:45;-6.20;99.90
4175;DHT22;2101;48.290;14.382;2024-01-10T05:38:11;-6.20;99.90
4175;DHT22;2101;48.290;14.382;2024-01-10T05:40:37;-6.20;99.90
4175;DHT22;2101;48.290;14.382;2024-01-10T05:43:03;-6.30;99.90
4175;DHT22;2101;48.290;14.382;2024-01-10T05:45:28;-6.30;99.90
4175;DHT22;2101;48.290;14.382;2024-01-10T05:47:54;-6.30;99.90
4175;DHT22;2101;48.290;14.382;2024-01-10T05:50:20;-6.30;99.90
4175;DHT22;2101;48.290;14.382;2024-01-10T05:52:47;-6.20;99.90
4175;DHT22;2101;48.290;14.382;2024-01-10T05:55:13;-6.20;99.90
4175;DHT22;2101;48.290;14.382;2024-01-10T05:57:39;-6.30;99.90
4175;DHT22;2101;48.290;14.382;2024-01-10T06:00:06;-6.30;99.90
4175;DHT22;2101;48.290;14.382;2024-01-10T06:02:39;-6.30;99.90
4175;DHT22;2101;48.290;14.382;2024-01-10T06:05:11;-6.30;99.90
4175;DHT22;2101;48.290;14.382;2024-01-10T06:07:38;-6.30;99.90
4175;DHT22;2101;48.290;14.382;2024-01-10T06:10:04;-6.30;99.90
4175;DHT22;2101;48.290;14.382;2024-01-10T06:12:30;-6.20;99.90
4175;DHT22;2101;48.290;14.382;2024-01-10T06:14:55;-6.20;99.90
4175;DHT22;2101;48.290;14.382;2024-01-10T06:17:21;-6.20;99.90
4175;DHT22;2101;48.290;14.382;2024-01-10T06:19:47;-6.30;99.90
4175;DHT22;2101;48.290;14.382;2024-01-10T06:22:13;-6.30;99.90
4175;DHT22;2101;48.290;14.382;2024-01-10T06:24:39;-6.30;99.90
4175;DHT22;2101;48.290;14.382;2024-01-10T06:27:06;-6.30;99.90
4175;DHT22;2101;48.290;14.382;2024-01-10T06:29:32;-6.40;99.90
4175;DHT22;2101;48.290;14.382;2024-01-10T06:31:59;-6.40;99.90
4175;DHT22;2101;48.290;14.382;2024-01-10T06:34:27;-6.50;99.90
4175;DHT22;2101;48.290;14.382;2024-01-10T06:36:52;-6.50;99.90
4175;DHT22;2101;48.290;14.382;2024-01-10T06:39:18;-6.40;99.90
4175;DHT22;2101;48.290;14.382;2024-01-10T06:41:48;-6.40;99.90
4175;DHT22;2101;48.290;14.382;2024-01-10T06:44:14;-6.40;99.90
4175;DHT22;2101;48.290;14.382;2024-01-10T06:46:40;-6.40;99.90
4175;DHT22;2101;48.290;14.382;2024-01-10T06:49:06;-6.40;99.90
4175;DHT22;2101;48.290;14.382;2024-01-10T06:51:32;-6.50;99.90
4175;DHT22;2101;48.290;14.382;2024-01-10T06:53:58;-6.50;99.90
4175;DHT22;2101;48.290;14.382;2024-01-10T06:56:29;-6.50;99.90
4175;DHT22;2101;48.290;14.382;2024-01-10T06:58:56;-6.50;99.90
4175;DHT22;2101;48.290;14.382;2024-01-10T07:01:21;-6.50;99.90
4175;DHT22;2101;48.290;14.382;2024-01-10T07:03:48;-6.50;99.90
4175;DHT22;2101;48.290;14.382;2024-01-10T07:06:14;-6.50;99.90
4175;DHT22;2101;48.290;14.382;2024-01-10T07:08:43;-6.50;99.90
4175;DHT22;2101;48.290;14.382;2024-01-10T07:11:10;-6.40;99.90
4175;DHT22;2101;48.290;14.382;2024-01-10T07:13:39;-6.50;99.90
4175;DHT22;2101;48.290;14.382;2024-01-10T07:16:05;-6.50;99.90
4175;DHT22;2101;48.290;14.382;2024-01-10T07:18:31;-6.50;99.90
4175;DHT22;2101;48.290;14.382;2024-01-10T07:20:57;-6.40;99.90
4175;DHT22;2101;48.290;14.382;2024-01-10T07:23:22;-6.40;99.90
4175;DHT22;2101;48.290;14.382;2024-01-10T07:25:51;-6.40;99.90
4175;DHT22;2101;48.290;14.382;2024-01-10T07:28:17;-6.40;99.90
4175;DHT22;2101;48.290;14.382;2024-01-10T07:30:44;-6.40;99.90
4175;DHT22;2101;48.290;14.382;2024-01-10T07:33:10;-6.40;99.90
4175;DHT22;2101;48.290;14.382;2024-01-10T07:35:36;-6.30;99.90
4175;DHT22;2101;48.290;14.382;2024-01-10T07:38:06;-6.30;99.90
4175;DHT22;2101;48.290;14.382;2024-01-10T07:40:36;-6.30;99.90
4175;DHT22;2101;48.290;14.382;2024-01-10T07:43:02;-6.30;99.90
4175;DHT22;2101;48.290;14.382;2024-01-10T07:45:28;-6.30;99.90
4175;DHT22;2101;48.290;14.382;2024-01-10T07:47:54;-6.20;99.90
4175;DHT22;2101;48.290;14.382;2024-01-10T07:50:20;-6.20;99.90
4175;DHT22;2101;48.290;14.382;2024-01-10T07:52:46;-6.20;99.90
4175;DHT22;2101;48.290;14.382;2024-01-10T07:55:12;-6.10;99.90
4175;DHT22;2101;48.290;14.382;2024-01-10T07:57:38;-6.10;99.90
4175;DHT22;2101;48.290;14.382;2024-01-10T08:00:05;-6.10;99.90
4175;DHT22;2101;48.290;14.382;2024-01-10T08:02:33;-6.00;99.90
4175;DHT22;2101;48.290;14.382;2024-01-10T08:05:06;-6.00;99.90
4175;DHT22;2101;48.290;14.382;2024-01-10T08:07:37;-5.90;99.90
4175;DHT22;2101;48.290;14.382;2024-01-10T08:10:08;-5.90;99.90
4175;DHT22;2101;48.290;14.382;2024-01-10T08:12:39;-5.90;99.90
4175;DHT22;2101;48.290;14.382;2024-01-10T08:15:05;-5.80;99.90
4175;DHT22;2101;48.290;14.382;2024-01-10T08:17:34;-5.70;99.90
4175;DHT22;2101;48.290;14.382;2024-01-10T08:20:02;-5.60;99.90
4175;DHT22;2101;48.290;14.382;2024-01-10T08:22:29;-5.70;99.90
4175;DHT22;2101;48.290;14.382;2024-01-10T08:24:55;-5.70;99.90
4175;DHT22;2101;48.290;14.382;2024-01-10T08:27:21;-5.60;99.90
4175;DHT22;2101;48.290;14.382;2024-01-10T08:29:47;-5.50;99.90
4175;DHT22;2101;48.290;14.382;2024-01-10T08:32:13;-5.50;99.90
4175;DHT22;2101;48.290;14.382;2024-01-10T08:34:38;-5.40;99.90
4175;DHT22;2101;48.290;14.382;2024-01-10T08:37:04;-5.40;99.90
4175;DHT22;2101;48.290;14.382;2024-01-10T08:39:30;-5.40;99.90
4175;DHT22;2101;48.290;14.382;2024-01-10T08:41:57;-5.30;99.90
4175;DHT22;2101;48.290;14.382;2024-01-10T08:44:22;-5.20;99.90
4175;DHT22;2101;48.290;14.382;2024-01-10T08:46:54;-5.10;99.90
4175;DHT22;2101;48.290;14.382;2024-01-10T08:49:20;-5.10;99.90
4175;DHT22;2101;48.290;14.382;2024-01-10T08:51:45;-5.00;99.90
4175;DHT22;2101;48.290;14.382;2024-01-10T08:54:14;-5.00;99.90
4175;DHT22;2101;48.290;14.382;2024-01-10T08:56:47;-5.00;99.90
4175;DHT22;2101;48.290;14.382;2024-01-10T08:59:13;-5.00;99.90
4175;DHT22;2101;48.290;14.382;2024-01-10T09:01:40;-4.90;99.90
4175;DHT22;2101;48.290;14.382;2024-01-10T09:04:06;-4.90;99.90
4175;DHT22;2101;48.290;14.382;2024-01-10T09:06:32;-4.80;99.90
4175;DHT22;2101;48.290;14.382;2024-01-10T09:08:58;-4.80;99.90
4175;DHT22;2101;48.290;14.382;2024-01-10T09:11:25;-4.70;99.90
4175;DHT22;2101;48.290;14.382;2024-01-10T09:13:51;-4.70;99.90
4175;DHT22;2101;48.290;14.382;2024-01-10T09:16:17;-4.60;99.90
4175;DHT22;2101;48.290;14.382;2024-01-10T09:18:46;-4.60;99.90
4175;DHT22;2101;48.290;14.382;2024-01-10T09:21:12;-4.50;99.90
4175;DHT22;2101;48.290;14.382;2024-01-10T09:23:37;-4.50;99.90
4175;DHT22;2101;48.290;14.382;2024-01-10T09:26:03;-4.60;99.90
4175;DHT22;2101;48.290;14.382;2024-01-10T09:28:29;-4.50;99.90
4175;DHT22;2101;48.290;14.382;2024-01-10T09:30:55;-4.40;99.90
4175;DHT22;2101;48.290;14.382;2024-01-10T09:33:21;-4.40;99.90
4175;DHT22;2101;48.290;14.382;2024-01-10T09:35:48;-4.30;99.90
4175;DHT22;2101;48.290;14.382;2024-01-10T09:38:14;-4.20;99.90
4175;DHT22;2101;48.290;14.382;2024-01-10T09:40:40;-4.30;99.90
4175;DHT22;2101;48.290;14.382;2024-01-10T09:43:05;-4.20;99.90
4175;DHT22;2101;48.290;14.382;2024-01-10T09:45:35;-4.10;99.90
4175;DHT22;2101;48.290;14.382;2024-01-10T09:48:03;-4.10;99.90
4175;DHT22;2101;48.290;14.382;2024-01-10T09:50:29;-3.90;99.90
4175;DHT22;2101;48.290;14.382;2024-01-10T09:53:08;-3.80;99.90
4175;DHT22;2101;48.290;14.382;2024-01-10T09:55:39;-3.80;99.90
4175;DHT22;2101;48.290;14.382;2024-01-10T09:58:06;-3.70;99.90
4175;DHT22;2101;48.290;14.382;2024-01-10T10:00:34;-3.70;99.90
4175;DHT22;2101;48.290;14.382;2024-01-10T10:03:10;-3.70;99.90
4175;DHT22;2101;48.290;14.382;2024-01-10T10:05:38;-3.60;99.90
4175;DHT22;2101;48.290;14.382;2024-01-10T10:08:07;-3.60;99.90
4175;DHT22;2101;48.290;14.382;2024-01-10T10:10:33;-3.60;99.90
4175;DHT22;2101;48.290;14.382;2024-01-10T10:12:59;-3.50;99.90
4175;DHT22;2101;48.290;14.382;2024-01-10T10:15:25;-3.40;99.90
4175;DHT22;2101;48.290;14.382;2024-01-10T10:17:54;-3.40;99.90
4175;DHT22;2101;48.290;14.382;2024-01-10T10:25:37;-3.40;99.90
4175;DHT22;2101;48.290;14.382;2024-01-10T10:28:05;-3.20;99.90
4175;DHT22;2101;48.290;14.382;2024-01-10T10:30:32;-3.10;99.90
4175;DHT22;2101;48.290;14.382;2024-01-10T10:32:58;-3.00;99.90
4175;DHT22;2101;48.290;14.382;2024-01-10T10:35:24;-2.90;99.90
4175;DHT22;2101;48.290;14.382;2024-01-10T10:37:51;-2.80;99.90
4175;DHT22;2101;48.290;14.382;2024-01-10T10:40:18;-2.70;99.90
4175;DHT22;2101;48.290;14.382;2024-01-10T10:42:46;-2.70;99.90
4175;DHT22;2101;48.290;14.382;2024-01-10T10:45:17;-2.60;99.90
4175;DHT22;2101;48.290;14.382;2024-01-10T10:47:45;-2.50;99.90
4175;DHT22;2101;48.290;14.382;2024-01-10T10:50:23;-2.40;99.90
4175;DHT22;2101;48.290;14.382;2024-01-10T10:52:50;-2.30;99.90
4175;DHT22;2101;48.290;14.382;2024-01-10T10:55:17;-2.40;99.90
4175;DHT22;2101;48.290;14.382;2024-01-10T10:57:48;-2.50;99.90
4175;DHT22;2101;48.290;14.382;2024-01-10T11:00:15;-2.40;99.90
4175;DHT22;2101;48.290;14.382;2024-01-10T11:02:42;-2.20;99.90
4175;DHT22;2101;48.290;14.382;2024-01-10T11:05:09;-2.20;99.90
4175;DHT22;2101;48.290;14.382;2024-01-10T11:07:44;-2.10;99.90
4175;DHT22;2101;48.290;14.382;2024-01-10T11:10:13;-1.70;99.90
4175;DHT22;2101;48.290;14.382;2024-01-10T11:15:39;-2.00;99.90
4175;DHT22;2101;48.290;14.382;2024-01-10T11:23:58;-1.90;99.90
4175;DHT22;2101;48.290;14.382;2024-01-10T11:26:24;-2.00;99.90
4175;DHT22;2101;48.290;14.382;2024-01-10T11:28:50;-2.00;99.90
4175;DHT22;2101;48.290;14.382;2024-01-10T11:31:27;-2.00;99.90
4175;DHT22;2101;48.290;14.382;2024-01-10T11:33:56;-1.80;99.90
4175;DHT22;2101;48.290;14.382;2024-01-10T11:36:22;-1.70;99.90
4175;DHT22;2101;48.290;14.382;2024-01-10T11:41:37;-1.60;99.90
4175;DHT22;2101;48.290;14.382;2024-01-10T11:47:01;-1.60;99.90
4175;DHT22;2101;48.290;14.382;2024-01-10T11:49:29;-1.60;99.90
4175;DHT22;2101;48.290;14.382;2024-01-10T11:51:56;-1.50;99.90
4175;DHT22;2101;48.290;14.382;2024-01-10T11:54:38;-1.60;99.90
4175;DHT22;2101;48.290;14.382;2024-01-10T11:59:43;-1.70;99.90
4175;DHT22;2101;48.290;14.382;2024-01-10T12:02:14;-1.60;99.90
4175;DHT22;2101;48.290;14.382;2024-01-10T12:04:40;-1.70;99.90
4175;DHT22;2101;48.290;14.382;2024-01-10T12:07:07;-1.60;99.90
4175;DHT22;2101;48.290;14.382;2024-01-10T12:09:34;-1.50;99.90
4175;DHT22;2101;48.290;14.382;2024-01-10T12:12:02;-1.40;99.90
4175;DHT22;2101;48.290;14.382;2024-01-10T12:14:27;-1.50;99.90
4175;DHT22;2101;48.290;14.382;2024-01-10T12:16:54;-1.50;99.90
4175;DHT22;2101;48.290;14.382;2024-01-10T12:19:20;-1.40;99.90
4175;DHT22;2101;48.290;14.382;2024-01-10T12:21:45;-1.30;99.90
4175;DHT22;2101;48.290;14.382;2024-01-10T12:24:13;-1.30;99.90
4175;DHT22;2101;48.290;14.382;2024-01-10T12:26:49;-1.30;99.90
4175;DHT22;2101;48.290;14.382;2024-01-10T12:29:18;-1.30;99.90
4175;DHT22;2101;48.290;14.382;2024-01-10T12:31:48;-1.20;99.90
4175;DHT22;2101;48.290;14.382;2024-01-10T12:34:14;-1.10;99.90
4175;DHT22;2101;48.290;14.382;2024-01-10T12:36:41;-1.20;99.90
4175;DHT22;2101;48.290;14.382;2024-01-10T12:39:07;-1.10;99.90
4175;DHT22;2101;48.290;14.382;2024-01-10T12:41:34;-1.10;99.90
4175;DHT22;2101;48.290;14.382;2024-01-10T12:44:01;-1.10;99.90
4175;DHT22;2101;48.290;14.382;2024-01-10T12:46:31;-1.00;99.90
4175;DHT22;2101;48.290;14.382;2024-01-10T12:51:29;-0.90;99.90
4175;DHT22;2101;48.290;14.382;2024-01-10T12:53:55;-0.90;99.90
4175;DHT22;2101;48.290;14.382;2024-01-10T12:56:24;-0.80;99.90
4175;DHT22;2101;48.290;14.382;2024-01-10T12:58:50;-0.80;99.90
4175;DHT22;2101;48.290;14.382;2024-01-10T13:01:15;-0.80;99.90
4175;DHT22;2101;48.290;14.382;2024-01-10T13:03:41;-0.80;99.90
4175;DHT22;2101;48.290;14.382;2024-01-10T13:06:09;-0.80;99.90
4175;DHT22;2101;48.290;14.382;2024-01-10T13:08:35;-0.90;99.90
4175;DHT22;2101;48.290;14.382;2024-01-10T13:11:01;-1.00;99.90
4175;DHT22;2101;48.290;14.382;2024-01-10T13:13:28;-0.90;99.90
4175;DHT22;2101;48.290;14.382;2024-01-10T13:15:54;-1.00;99.90
4175;DHT22;2101;48.290;14.382;2024-01-10T13:18:21;-1.10;99.90
4175;DHT22;2101;48.290;14.382;2024-01-10T13:20:47;-1.00;99.90
4175;DHT22;2101;48.290;14.382;2024-01-10T13:23:13;-1.10;99.90
4175;DHT22;2101;48.290;14.382;2024-01-10T13:25:41;-1.10;99.90
4175;DHT22;2101;48.290;14.382;2024-01-10T13:28:06;-1.00;99.90
4175;DHT22;2101;48.290;14.382;2024-01-10T13:30:32;-1.00;99.90
4175;DHT22;2101;48.290;14.382;2024-01-10T13:32:58;-0.90;99.90
4175;DHT22;2101;48.290;14.382;2024-01-10T13:35:25;-0.90;99.90
4175;DHT22;2101;48.290;14.382;2024-01-10T13:37:51;-1.00;99.90
4175;DHT22;2101;48.290;14.382;2024-01-10T13:40:16;-1.00;99.90
4175;DHT22;2101;48.290;14.382;2024-01-10T13:42:43;-1.00;99.90
4175;DHT22;2101;48.290;14.382;2024-01-10T13:45:09;-1.00;99.90
4175;DHT22;2101;48.290;14.382;2024-01-10T13:47:39;-1.00;99.90
4175;DHT22;2101;48.290;14.382;2024-01-10T13:50:08;-1.00;99.90
4175;DHT22;2101;48.290;14.382;2024-01-10T13:52:36;-1.00;99.90
4175;DHT22;2101;48.290;14.382;2024-01-10T13:55:03;-1.00;99.90
4175;DHT22;2101;48.290;14.382;2024-01-10T13:57:32;-1.00;99.90
4175;DHT22;2101;48.290;14.382;2024-01-10T14:00:01;-1.00;99.90
4175;DHT22;2101;48.290;14.382;2024-01-10T14:02:27;-1.00;99.90
4175;DHT22;2101;48.290;14.382;2024-01-10T14:04:53;-1.00;99.90
4175;DHT22;2101;48.290;14.382;2024-01-10T14:07:25;-1.00;99.90
4175;DHT22;2101;48.290;14.382;2024-01-10T14:09:51;-1.10;99.90
4175;DHT22;2101;48.290;14.382;2024-01-10T14:12:20;-1.10;99.90
4175;DHT22;2101;48.290;14.382;2024-01-10T14:14:45;-1.10;99.90
4175;DHT22;2101;48.290;14.382;2024-01-10T14:17:11;-1.10;99.90
4175;DHT22;2101;48.290;14.382;2024-01-10T14:19:37;-1.20;99.90
4175;DHT22;2101;48.290;14.382;2024-01-10T14:22:03;-1.20;99.90
4175;DHT22;2101;48.290;14.382;2024-01-10T14:24:28;-1.30;99.90
4175;DHT22;2101;48.290;14.382;2024-01-10T14:26:54;-1.30;99.90
4175;DHT22;2101;48.290;14.382;2024-01-10T14:29:20;-1.30;99.90
4175;DHT22;2101;48.290;14.382;2024-01-10T14:31:47;-1.30;99.90
4175;DHT22;2101;48.290;14.382;2024-01-10T14:34:14;-1.40;99.90
4175;DHT22;2101;48.290;14.382;2024-01-10T14:36:41;-1.50;99.90
4175;DHT22;2101;48.290;14.382;2024-01-10T14:39:06;-1.50;99.90
4175;DHT22;2101;48.290;14.382;2024-01-10T14:41:33;-1.50;99.90
4175;DHT22;2101;48.290;14.382;2024-01-10T14:44:00;-1.50;99.90
4175;DHT22;2101;48.290;14.382;2024-01-10T14:46:26;-1.50;99.90
4175;DHT22;2101;48.290;14.382;2024-01-10T14:48:53;-1.60;99.90
4175;DHT22;2101;48.290;14.382;2024-01-10T14:51:19;-1.70;99.90
4175;DHT22;2101;48.290;14.382;2024-01-10T14:53:45;-1.80;99.90
4175;DHT22;2101;48.290;14.382;2024-01-10T14:56:10;-1.80;99.90
4175;DHT22;2101;48.290;14.382;2024-01-10T14:58:36;-1.90;99.90
4175;DHT22;2101;48.290;14.382;2024-01-10T15:01:02;-1.90;99.90
4175;DHT22;2101;48.290;14.382;2024-01-10T15:03:27;-1.90;99.90
4175;DHT22;2101;48.290;14.382;2024-01-10T15:05:53;-2.00;99.90
4175;DHT22;2101;48.290;14.382;2024-01-10T15:08:19;-2.10;99.90
4175;DHT22;2101;48.290;14.382;2024-01-10T15:10:45;-2.10;99.90
4175;DHT22;2101;48.290;14.382;2024-01-10T15:13:11;-2.20;99.90
4175;DHT22;2101;48.290;14.382;2024-01-10T15:15:38;-2.20;99.90
4175;DHT22;2101;48.290;14.382;2024-01-10T15:18:04;-2.30;99.90
4175;DHT22;2101;48.290;14.382;2024-01-10T15:20:30;-2.30;99.90
4175;DHT22;2101;48.290;14.382;2024-01-10T15:22:56;-2.30;99.90
4175;DHT22;2101;48.290;14.382;2024-01-10T15:25:23;-2.30;99.90
4175;DHT22;2101;48.290;14.382;2024-01-10T15:27:50;-2.50;99.90
4175;DHT22;2101;48.290;14.382;2024-01-10T15:30:16;-2.50;99.90
4175;DHT22;2101;48.290;14.382;2024-01-10T15:32:43;-2.50;99.90
4175;DHT22;2101;48.290;14.382;2024-01-10T15:35:09;-2.60;99.90
4175;DHT22;2101;48.290;14.382;2024-01-10T15:37:35;-2.60;99.90
4175;DHT22;2101;48.290;14.382;2024-01-10T15:40:00;-2.60;99.90
4175;DHT22;2101;48.290;14.382;2024-01-10T15:42:26;-2.70;99.90
4175;DHT22;2101;48.290;14.382;2024-01-10T15:44:52;-2.70;99.90
4175;DHT22;2101;48.290;14.382;2024-01-10T15:47:18;-2.80;99.90
4175;DHT22;2101;48.290;14.382;2024-01-10T15:49:44;-2.80;99.90
4175;DHT22;2101;48.290;14.382;2024-01-10T15:52:12;-2.80;99.90
4175;DHT22;2101;48.290;14.382;2024-01-10T15:54:38;-2.80;99.90
4175;DHT22;2101;48.290;14.382;2024-01-10T15:57:06;-2.90;99.90
4175;DHT22;2101;48.290;14.382;2024-01-10T15:59:32;-2.90;99.90
4175;DHT22;2101;48.290;14.382;2024-01-10T16:01:58;-2.90;99.90
4175;DHT22;2101;48.290;14.382;2024-01-10T16:04:24;-2.90;99.90
4175;DHT22;2101;48.290;14.382;2024-01-10T16:06:49;-3.00;99.90